Time;durP1;ratioP1;P1;durP2;ratioP2;P2;SDS_P1;SDS_P2;PMS_P1;PMS_P2;Temp;Humidity;BMP_temperature;BMP_pressure;BME280_temperature;BME280_humidity;BME280_pressure;Samples;Min_cycle;Max_cycle;Signal;HPM_P1;HPM_P2
2022/10/06 00:00:16;;;;;;;2.00;1.83;;;;;;;-143.84;79.02;45121.44;5111651;28;20517;-74
2022/10/06 00:02:45;;;;;;;1.80;1.70;;;;;;;-143.84;79.28;45119.53;5111644;28;20436;-74
2022/10/06 00:05:12;;;;;;;1.80;1.70;;;;;;;-143.84;79.48;45132.84;5111507;28;20454;-74
2022/10/06 00:07:39;;;;;;;3.17;2.13;;;;;;;-143.84;79.58;45115.72;5111727;28;20500;-74
2022/10/06 00:10:07;;;;;;;2.53;2.00;;;;;;;-143.84;79.62;45140.47;5111574;28;20945;-74
2022/10/06 00:12:41;;;;;;;2.17;2.07;;;;;;;-143.84;79.38;45130.94;5111446;28;20495;-74
2022/10/06 00:15:09;;;;;;;2.10;2.00;;;;;;;-143.84;79.72;45140.47;5111632;28;20494;-74
2022/10/06 00:17:37;;;;;;;3.10;2.40;;;;;;;-143.84;79.73;45125.22;5111225;28;20539;-74
2022/10/06 00:20:04;;;;;;;2.33;2.23;;;;;;;-143.84;79.91;45134.75;5111486;28;20474;-74
2022/10/06 00:22:34;;;;;;;5.00;1.90;;;;;;;-143.84;79.85;45140.47;5111324;28;20438;-74
2022/10/06 00:25:02;;;;;;;4.40;3.03;;;;;;;-143.84;79.96;45142.38;5111402;28;20430;-74
2022/10/06 00:27:33;;;;;;;2.33;2.13;;;;;;;-143.84;79.99;45106.19;5111154;28;20455;-74
2022/10/06 00:30:02;;;;;;;4.40;2.30;;;;;;;-143.84;80.07;45129.03;5111019;28;21016;-74
2022/10/06 00:32:30;;;;;;;1.97;1.87;;;;;;;-143.84;80.11;45129.03;5111073;28;20539;-74
2022/10/06 00:34:58;;;;;;;2.43;2.23;;;;;;;-143.84;80.08;45123.34;5111291;28;20484;-74
2022/10/06 00:37:25;;;;;;;4.40;2.10;;;;;;;-143.84;80.26;45123.34;5110785;28;20472;-74
2022/10/06 00:39:52;;;;;;;2.73;1.87;;;;;;;-143.84;80.09;45113.81;5110710;28;20539;-75
2022/10/06 00:42:24;;;;;;;3.60;1.77;;;;;;;-143.84;80.32;45121.44;5110844;28;20581;-75
2022/10/06 00:44:51;;;;;;;7.73;2.10;;;;;;;-143.84;80.06;45117.63;5111105;28;20502;-75
2022/10/06 00:47:22;;;;;;;2.20;2.10;;;;;;;-143.84;80.05;45138.56;5110847;28;20944;-75
2022/10/06 00:49:50;;;;;;;3.00;1.70;;;;;;;-143.84;80.46;45144.28;5110690;28;20524;-75
2022/10/06 00:52:21;;;;;;;2.80;2.00;;;;;;;-143.84;80.00;45119.53;5110680;28;20446;-75
2022/10/06 00:54:48;;;;;;;4.20;2.80;;;;;;;-143.84;79.98;45129.03;5110606;28;20442;-75
2022/10/06 00:57:15;;;;;;;1.87;1.70;;;;;;;-143.84;80.10;45119.53;5110430;28;21114;-75
2022/10/06 00:59:43;;;;;;;2.20;2.10;;;;;;;-143.84;80.27;45150.00;5110341;28;20873;-75
2022/10/06 01:02:15;;;;;;;1.93;1.83;;;;;;;-143.84;80.33;45157.59;5110119;28;20435;-75
2022/10/06 01:04:48;;;;;;;1.90;1.80;;;;;;;-143.84;80.31;45132.84;5110220;28;21024;-75
2022/10/06 01:07:17;;;;;;;3.90;1.90;;;;;;;-143.84;80.56;45136.66;5110022;28;20438;-74
2022/10/06 01:09:45;;;;;;;1.97;1.87;;;;;;;-143.84;80.39;45144.28;5109194;28;20603;-75
2022/10/06 01:12:13;;;;;;;2.17;2.00;;;;;;;-143.84;80.43;45127.13;5110236;28;20462;-74
2022/10/06 01:14:41;;;;;;;2.30;2.20;;;;;;;-143.84;80.69;45144.28;5110265;28;20963;-74
2022/10/06 01:17:14;;;;;;;2.03;1.93;;;;;;;-143.84;80.59;45142.38;5110557;28;21254;-74
2022/10/06 01:19:49;;;;;;;2.67;2.27;;;;;;;-143.84;80.77;45132.84;5110128;28;20446;-74
2022/10/06 01:22:20;;;;;;;2.20;2.10;;;;;;;-143.84;80.56;45132.84;5110141;28;20442;-74
2022/10/06 01:24:51;;;;;;;1.83;1.70;;;;;;;-143.84;80.56;45123.34;5110073;28;20466;-74
2022/10/06 01:27:20;;;;;;;2.17;1.97;;;;;;;-143.84;80.41;45151.91;5109901;28;20522;-74
2022/10/06 01:29:51;;;;;;;4.10;2.30;;;;;;;-143.84;80.45;45146.19;5110028;28;20535;-74
2022/10/06 01:32:18;;;;;;;1.90;1.80;;;;;;;-143.84;80.33;45129.03;5109876;28;20452;-74
2022/10/06 01:34:46;;;;;;;1.90;1.80;;;;;;;-143.84;80.59;45157.59;5109989;28;20468;-74
2022/10/06 01:37:13;;;;;;;2.40;2.20;;;;;;;-143.84;80.47;45140.47;5109977;28;20442;-74
2022/10/06 01:39:41;;;;;;;2.40;2.20;;;;;;;-143.84;80.36;45136.66;5109904;28;20798;-74
2022/10/06 01:42:10;;;;;;;2.50;2.30;;;;;;;-143.84;80.40;45151.91;5109431;28;20503;-74
2022/10/06 01:44:37;;;;;;;2.00;1.90;;;;;;;-143.84;80.33;45113.81;5109830;28;20449;-74
2022/10/06 01:47:06;;;;;;;2.30;2.17;;;;;;;-143.84;80.45;45148.09;5109176;28;20522;-74
2022/10/06 01:49:33;;;;;;;1.97;1.87;;;;;;;-143.84;80.49;45117.63;5109695;28;20448;-74
2022/10/06 01:52:00;;;;;;;2.40;2.20;;;;;;;-143.84;80.48;45127.13;5110102;28;20441;-74
2022/10/06 01:54:27;;;;;;;1.80;1.70;;;;;;;-143.84;80.46;45113.81;5109726;28;20943;-74
2022/10/06 01:56:54;;;;;;;2.00;1.90;;;;;;;-143.84;80.17;45140.47;5109616;28;20481;-74
2022/10/06 01:59:23;;;;;;;2.30;2.10;;;;;;;-143.84;80.18;45123.34;5108862;28;20506;-74
2022/10/06 02:01:50;;;;;;;2.80;2.10;;;;;;;-143.84;80.08;45129.03;5108935;28;20484;-74
2022/10/06 02:04:18;;;;;;;2.63;1.90;;;;;;;-143.84;79.71;45138.56;5108566;28;20511;-74
2022/10/06 02:06:45;;;;;;;2.40;2.30;;;;;;;-143.84;79.53;45129.03;5109628;28;20511;-74
2022/10/06 02:09:12;;;;;;;1.67;1.57;;;;;;;-143.84;79.61;45129.03;5109754;28;20449;-74
2022/10/06 02:11:40;;;;;;;1.60;1.50;;;;;;;-143.84;79.65;45144.28;5109332;28;20446;-74
2022/10/06 02:14:07;;;;;;;2.30;2.10;;;;;;;-143.84;79.63;45119.53;5109557;28;21204;-76
2022/10/06 02:16:35;;;;;;;1.70;1.60;;;;;;;-143.84;79.42;45121.44;5109576;28;20438;-74
2022/10/06 02:19:03;;;;;;;2.10;2.00;;;;;;;-143.84;79.66;45134.75;5109028;28;20443;-74
2022/10/06 02:21:30;;;;;;;5.40;2.40;;;;;;;-143.84;79.59;45151.91;5109018;28;20477;-74
2022/10/06 02:23:57;;;;;;;2.03;1.93;;;;;;;-143.84;79.16;45157.59;5109416;28;20436;-74
2022/10/06 02:26:24;;;;;;;2.33;2.20;;;;;;;-143.84;79.45;45110.00;5109388;28;20984;-74
2022/10/06 02:28:51;;;;;;;2.17;1.97;;;;;;;-143.84;79.04;45127.13;5109321;28;20443;-75
2022/10/06 02:31:19;;;;;;;1.80;1.70;;;;;;;-143.84;79.25;45123.34;5109160;28;20445;-74
2022/10/06 02:33:47;;;;;;;1.90;1.70;;;;;;;-143.84;79.17;45136.66;5109072;28;20514;-74
2022/10/06 02:36:16;;;;;;;4.70;2.10;;;;;;;-143.84;78.60;45110.00;5109098;28;20488;-74
2022/10/06 02:38:44;;;;;;;6.70;3.17;;;;;;;-143.84;78.63;45127.13;5109005;28;20530;-74
2022/10/06 02:41:11;;;;;;;9.73;2.93;;;;;;;-143.84;78.54;45129.03;5108884;28;20480;-74
2022/10/06 02:43:38;;;;;;;3.70;3.20;;;;;;;-143.84;78.37;45125.22;5108892;28;20477;-74
2022/10/06 02:46:09;;;;;;;11.30;4.00;;;;;;;-143.84;78.46;45121.44;5109048;28;20518;-74
2022/10/06 02:48:36;;;;;;;8.40;4.77;;;;;;;-143.84;78.40;45134.75;5108892;28;20468;-74
2022/10/06 02:51:08;;;;;;;18.83;6.60;;;;;;;-143.84;78.23;45110.00;5108844;28;20432;-74
2022/10/06 02:53:36;;;;;;;9.13;7.80;;;;;;;-143.84;77.99;45123.34;5108966;28;20503;-74
2022/10/06 02:56:05;;;;;;;9.67;7.77;;;;;;;-143.84;78.12;45110.00;5108855;28;20952;-74
2022/10/06 02:58:33;;;;;;;11.80;9.70;;;;;;;-143.84;77.61;45123.34;5109820;28;20432;-74
2022/10/06 03:01:04;;;;;;;20.00;17.87;;;;;;;-143.84;77.80;45140.47;5111333;28;21394;-74
2022/10/06 03:03:31;;;;;;;31.70;21.83;;;;;;;-143.84;77.74;45119.53;5096624;28;20512;-74
2022/10/06 03:06:03;;;;;;;25.23;19.30;;;;;;;-143.84;77.63;45125.22;5097772;28;20502;-74
2022/10/06 03:08:32;;;;;;;22.87;18.20;;;;;;;-143.84;77.23;45132.84;5112649;28;20525;-74
2022/10/06 03:11:02;;;;;;;24.67;18.67;;;;;;;-143.84;77.33;45110.00;5112477;28;20790;-74
2022/10/06 03:13:31;;;;;;;20.83;15.10;;;;;;;-143.84;77.25;45132.84;5112743;28;20788;-74
2022/10/06 03:15:58;;;;;;;13.70;12.30;;;;;;;-143.84;76.95;45150.00;5109007;28;20511;-74
2022/10/06 03:18:25;;;;;;;18.30;9.10;;;;;;;-143.84;76.62;45144.28;5092063;28;20440;-74
2022/10/06 03:20:53;;;;;;;9.00;8.20;;;;;;;-143.84;76.92;45113.81;5092016;28;20523;-74
2022/10/06 03:23:20;;;;;;;14.07;12.50;;;;;;;-143.84;76.43;45113.81;5091976;28;20450;-74
2022/10/06 03:25:56;;;;;;;12.60;9.87;;;;;;;-143.84;76.42;45148.09;5091864;28;20443;-74
2022/10/06 03:28:23;;;;;;;6.30;5.80;;;;;;;-143.84;76.46;45134.75;5091893;28;20503;-74
2022/10/06 03:30:51;;;;;;;4.07;3.67;;;;;;;-143.84;76.35;45140.47;5091810;28;20972;-74
2022/10/06 03:33:18;;;;;;;2.90;2.70;;;;;;;-143.84;75.95;45136.66;5092004;28;20446;-74
2022/10/06 03:35:46;;;;;;;2.70;2.50;;;;;;;-143.84;75.92;45140.47;5091992;28;20485;-74
2022/10/06 03:38:13;;;;;;;5.13;3.13;;;;;;;-143.84;75.60;45144.28;5101791;28;20458;-74
2022/10/06 03:40:40;;;;;;;4.50;3.37;;;;;;;-143.84;75.58;45125.22;5102661;28;20442;-74
2022/10/06 03:43:11;;;;;;;3.40;3.10;;;;;;;-143.84;75.21;45136.66;5111109;28;20482;-74
2022/10/06 03:45:38;;;;;;;3.40;2.70;;;;;;;-143.84;75.29;45121.44;5112215;28;20801;-75
2022/10/06 03:48:06;;;;;;;5.27;2.57;;;;;;;-143.84;75.25;45140.47;5112050;28;20963;-74
2022/10/06 03:50:33;;;;;;;2.53;2.20;;;;;;;-143.84;74.77;45125.22;5112449;28;20974;-74
2022/10/06 03:53:00;;;;;;;7.60;2.63;;;;;;;-143.84;74.57;45146.19;5092466;28;21030;-76
2022/10/06 03:55:27;;;;;;;3.53;3.33;;;;;;;-143.84;74.75;45132.84;5091263;28;20438;-75
2022/10/06 03:57:56;;;;;;;2.60;2.50;;;;;;;-143.84;74.53;45157.59;5091482;28;20516;-74
2022/10/06 04:00:25;;;;;;;3.33;2.53;;;;;;;-143.84;74.36;45100.47;5091448;28;20842;-74
2022/10/06 04:02:52;;;;;;;2.73;2.40;;;;;;;-143.84;74.44;45125.22;5091147;28;20509;-74
2022/10/06 04:05:19;;;;;;;2.47;2.27;;;;;;;-143.84;74.21;45125.22;5091185;28;20444;-74
2022/10/06 04:07:46;;;;;;;3.50;2.27;;;;;;;-143.84;74.10;45144.28;5091285;28;20878;-75
2022/10/06 04:10:14;;;;;;;5.90;2.57;;;;;;;-143.84;73.87;45136.66;5090588;28;20436;-75
2022/10/06 04:12:41;;;;;;;2.17;1.90;;;;;;;-143.84;73.89;45146.19;5090674;28;20450;-74
2022/10/06 04:15:09;;;;;;;4.00;2.10;;;;;;;-143.84;73.84;45134.75;5090976;28;20711;-73
2022/10/06 04:17:37;;;;;;;2.60;2.00;;;;;;;-143.84;73.99;45129.03;5091154;28;20447;-75
2022/10/06 04:20:05;;;;;;;2.60;2.40;;;;;;;-143.84;73.51;45136.66;5091963;28;21008;-74
2022/10/06 04:22:32;;;;;;;2.60;2.10;;;;;;;-143.84;73.64;45117.63;5091378;28;20523;-75
2022/10/06 04:24:59;;;;;;;5.50;1.77;;;;;;;-143.84;73.22;45127.13;5091491;28;20447;-74
2022/10/06 04:27:29;;;;;;;4.40;1.70;;;;;;;-143.84;73.36;45132.84;5090570;28;20437;-75
2022/10/06 04:29:58;;;;;;;2.33;1.80;;;;;;;-143.84;73.16;45130.94;5091248;28;20445;-72
2022/10/06 04:32:25;;;;;;;3.23;1.90;;;;;;;-143.84;73.09;45121.44;5090923;28;20788;-73
2022/10/06 04:34:54;;;;;;;3.83;2.10;;;;;;;-143.84;72.86;45132.84;5101731;28;20529;-74
2022/10/06 04:37:21;;;;;;;4.43;1.80;;;;;;;-143.84;73.15;45142.38;5111151;28;20445;-74
2022/10/06 04:39:48;;;;;;;6.50;2.50;;;;;;;-143.84;72.85;45115.72;5111383;28;20434;-74
2022/10/06 04:42:15;;;;;;;3.40;1.80;;;;;;;-143.84;72.50;45129.03;5110845;28;20926;-74
2022/10/06 04:44:42;;;;;;;5.20;2.10;;;;;;;-143.84;72.50;45130.94;5102961;28;20438;-74
2022/10/06 04:47:10;;;;;;;5.73;2.67;;;;;;;-143.84;72.20;45138.56;5110785;28;20443;-74
2022/10/06 04:49:37;;;;;;;1.83;1.60;;;;;;;-143.84;72.06;45130.94;5111197;28;21006;-73
2022/10/06 04:52:05;;;;;;;2.60;1.80;;;;;;;-143.84;72.15;45125.22;5110908;28;20435;-74
2022/10/06 04:54:32;;;;;;;5.37;1.70;;;;;;;-143.84;72.03;45144.28;5110890;28;20561;-74
2022/10/06 04:56:59;;;;;;;4.77;2.00;;;;;;;-143.84;72.12;45106.19;5110822;28;20510;-74
2022/10/06 05:02:08;;;;;;;11.43;2.30;;;;;;;-143.84;71.57;45121.44;5110201;28;20489;-74
2022/10/06 05:04:35;;;;;;;9.73;2.07;;;;;;;-143.84;71.29;45110.00;5110092;28;20439;-74
2022/10/06 05:07:02;;;;;;;4.53;2.20;;;;;;;-143.84;70.97;45121.44;5110320;28;20438;-74
2022/10/06 05:09:30;;;;;;;5.67;2.50;;;;;;;-143.84;70.60;45127.13;5109709;28;20441;-74
2022/10/06 05:11:58;;;;;;;4.30;1.70;;;;;;;-143.84;69.99;45125.22;5109847;28;20888;-74
2022/10/06 05:14:25;;;;;;;3.40;1.70;;;;;;;-143.84;68.75;45119.53;5110135;28;20449;-74
2022/10/06 05:16:52;;;;;;;1.97;1.50;;;;;;;-143.84;68.39;45115.72;5110365;28;20437;-74
2022/10/06 05:19:19;;;;;;;5.77;1.40;;;;;;;-143.84;67.84;45134.75;5110399;28;20438;-74
2022/10/06 05:21:46;;;;;;;4.30;1.90;;;;;;;-143.84;67.47;45125.22;5109368;28;20482;-74
2022/10/06 05:24:13;;;;;;;8.60;1.60;;;;;;;-143.84;66.96;45108.09;5110252;28;20435;-74
2022/10/06 05:26:42;;;;;;;3.07;1.93;;;;;;;-143.84;65.58;45089.06;5108044;28;20451;-74
2022/10/06 05:29:09;;;;;;;2.30;1.40;;;;;;;-143.84;63.85;45119.53;5101043;28;20979;-73
2022/10/06 05:31:39;;;;;;;6.50;2.40;;;;;;;-143.84;62.17;45102.38;5100882;28;20456;-73
2022/10/06 05:34:06;;;;;;;1.43;1.33;;;;;;;-143.84;60.97;45096.66;5110012;28;20437;-73
2022/10/06 05:36:34;;;;;;;3.67;1.70;;;;;;;-143.84;58.48;45089.06;5100651;28;21022;-74
2022/10/06 05:39:02;;;;;;;3.47;1.60;;;;;;;-143.84;56.34;45094.78;5088387;28;20440;-74
2022/10/06 05:41:31;;;;;;;4.57;1.70;;;;;;;-143.84;55.01;45087.16;5089465;28;20484;-74
2022/10/06 05:44:01;;;;;;;2.10;1.30;;;;;;;-143.84;52.02;45073.81;5089545;28;20475;-74
2022/10/06 05:46:30;;;;;;;1.97;1.50;;;;;;;-143.84;50.48;45062.41;5089454;28;20451;-74
2022/10/06 05:48:59;;;;;;;5.43;1.50;;;;;;;-143.84;48.81;45100.47;5089490;28;20456;-74
2022/10/06 05:51:28;;;;;;;3.53;1.30;;;;;;;-143.84;47.74;45062.41;5089196;28;20440;-74
2022/10/06 05:53:55;;;;;;;15.20;1.60;;;;;;;-143.84;47.51;45064.31;5089823;28;20432;-74
2022/10/06 05:56:24;;;;;;;1.40;1.23;;;;;;;-143.84;45.54;45081.44;5089361;28;21130;-74
2022/10/06 05:58:53;;;;;;;3.37;1.30;;;;;;;-143.84;45.47;45070.00;5089426;28;20849;-74
2022/10/06 06:01:22;;;;;;;1.40;1.30;;;;;;;-143.84;46.05;45045.25;5089461;28;20444;-74
2022/10/06 06:03:51;;;;;;;3.63;1.57;;;;;;;-143.84;44.50;45062.41;5089528;28;20969;-74
2022/10/06 06:06:21;;;;;;;6.20;1.57;;;;;;;-143.84;43.45;45054.78;5089616;28;20860;-74
2022/10/06 06:08:51;;;;;;;2.70;1.40;;;;;;;-143.84;42.60;45049.06;5089342;28;20436;-74
2022/10/06 06:11:24;;;;;;;6.57;2.23;;;;;;;-143.84;42.76;45056.69;5089286;28;20448;-74
2022/10/06 06:13:51;;;;;;;3.80;1.50;;;;;;;-143.84;42.56;45052.88;5089522;28;20989;-74
2022/10/06 06:16:17;;;;;;;2.13;1.47;;;;;;;-143.84;42.54;45062.41;5089419;28;20439;-74
2022/10/06 06:18:46;;;;;;;5.33;2.07;;;;;;;-143.84;42.42;45071.91;5089276;28;20458;-74
2022/10/06 06:21:13;;;;;;;6.70;1.77;;;;;;;-143.84;41.34;45056.69;5089657;28;20439;-74
2022/10/06 06:23:43;;;;;;;3.67;1.53;;;;;;;-143.84;40.57;45039.53;5089509;28;20949;-74
2022/10/06 06:26:14;;;;;;;1.63;1.40;;;;;;;-143.84;39.61;45030.03;5088982;28;20462;-74
2022/10/06 06:28:42;;;;;;;2.07;1.60;;;;;;;-143.84;39.24;45039.53;5089024;28;20436;-74
2022/10/06 06:31:11;;;;;;;5.00;1.60;;;;;;;-143.84;40.10;45026.22;5089702;28;20448;-74
2022/10/06 06:33:40;;;;;;;2.83;1.40;;;;;;;-143.84;39.16;45047.16;5092033;28;20493;-74
2022/10/06 06:36:15;;;;;;;5.97;1.40;;;;;;;-143.84;40.31;45033.84;5093461;28;20443;-74
2022/10/06 06:38:42;;;;;;;1.63;1.53;;;;;;;-143.84;39.99;45035.75;5093786;28;21259;-74
2022/10/06 06:41:17;;;;;;;3.87;1.80;;;;;;;-143.84;38.41;45068.13;5093920;28;20448;-74
2022/10/06 06:43:44;;;;;;;4.47;1.50;;;;;;;-143.84;37.45;45039.53;5093827;28;20514;-74
2022/10/06 06:46:13;;;;;;;5.80;1.33;;;;;;;-143.84;36.71;45050.97;5093377;28;20490;-74
2022/10/06 06:48:41;;;;;;;4.60;1.73;;;;;;;-143.84;36.16;45049.06;5093235;28;20930;-74
2022/10/06 06:51:09;;;;;;;3.50;1.70;;;;;;;-143.84;35.62;45022.41;5093607;28;20469;-74
2022/10/06 06:53:38;;;;;;;3.97;1.33;;;;;;;-143.84;35.96;45031.94;5093634;28;20450;-74
2022/10/06 06:56:07;;;;;;;1.50;1.23;;;;;;;-143.84;35.48;45022.41;5092619;27;20493;-75
2022/10/06 06:58:34;;;;;;;3.33;1.50;;;;;;;-143.84;35.66;45022.41;5093584;28;20455;-74
2022/10/06 07:01:06;;;;;;;13.20;4.70;;;;;;;-143.84;35.53;44995.75;5093551;28;20424;-74
2022/10/06 07:03:33;;;;;;;7.33;5.20;;;;;;;-143.84;35.62;45016.69;5093168;28;20467;-74
2022/10/06 07:06:07;;;;;;;7.30;4.37;;;;;;;-143.84;35.42;45024.31;5093191;28;20469;-74
2022/10/06 07:08:36;;;;;;;3.77;3.47;;;;;;;-143.84;34.28;45033.84;5093121;28;20449;-74
2022/10/06 07:11:13;;;;;;;5.30;3.20;;;;;;;-143.84;35.00;45020.50;5092777;28;20440;-74
2022/10/06 07:13:42;;;;;;;2.67;2.47;;;;;;;-143.84;34.42;45020.50;5093040;28;20972;-74
2022/10/06 07:25:10;;;;;;;4.43;2.97;;;;;;;-143.84;34.28;45037.66;5014924;28;20963;-74
2022/10/06 07:27:43;;;;;;;3.20;2.90;;;;;;;-143.84;34.42;45030.03;5078337;28;20472;-74
2022/10/06 07:30:13;;;;;;;9.63;5.13;;;;;;;-143.84;34.51;45031.94;5092831;28;20448;-74
2022/10/06 07:32:40;;;;;;;6.33;5.73;;;;;;;-143.84;35.20;45026.22;5092302;28;20460;-74
2022/10/06 07:35:09;;;;;;;12.23;4.70;;;;;;;-143.84;35.97;45010.97;5092570;28;20428;-74
2022/10/06 07:37:36;;;;;;;7.43;5.13;;;;;;;-143.84;35.86;45062.41;5092435;28;20435;-73
2022/10/06 07:40:05;;;;;;;12.20;7.23;;;;;;;-143.84;36.50;45043.34;5092647;28;20478;-73
2022/10/06 07:42:46;;;;;;;12.40;5.70;;;;;;;-143.84;35.43;45043.34;5092796;28;20487;-74
2022/10/06 07:48:01;;;;;;;7.60;3.93;;;;;;;-143.84;36.02;45047.16;5092171;28;20897;-74
2022/10/06 07:50:29;;;;;;;11.43;6.33;;;;;;;-143.84;36.19;45026.22;5092652;28;20463;-74
2022/10/06 07:52:56;;;;;;;11.57;6.03;;;;;;;-143.84;34.39;45028.13;5092001;28;20961;-73
2022/10/06 07:55:23;;;;;;;11.03;7.27;;;;;;;-143.84;34.55;45052.88;5092253;28;20868;-73
2022/10/06 07:57:51;;;;;;;5.60;5.10;;;;;;;-143.84;34.42;45018.59;5092163;28;20440;-73
2022/10/06 08:00:21;;;;;;;8.80;5.30;;;;;;;-143.84;34.88;45014.78;5091646;28;20428;-69
2022/10/06 08:02:48;;;;;;;6.80;2.33;;;;;;;-143.84;33.71;45052.88;5090921;28;20487;-70
2022/10/06 08:05:16;;;;;;;4.70;2.60;;;;;;;-143.84;34.34;45007.19;5091402;28;20517;-70
2022/10/06 08:07:43;;;;;;;9.40;3.30;;;;;;;-143.84;33.65;45007.19;5091421;28;20437;-70
2022/10/06 08:10:10;;;;;;;5.73;2.13;;;;;;;-143.84;34.54;45009.09;5091038;28;20446;-69
2022/10/06 08:12:39;;;;;;;4.30;3.23;;;;;;;-143.84;34.61;45026.22;5090416;28;20455;-69
2022/10/06 08:15:10;;;;;;;9.40;3.17;;;;;;;-143.84;34.95;45012.88;5090850;28;20816;-73
2022/10/06 08:17:39;;;;;;;6.17;3.03;;;;;;;-143.84;34.22;45049.06;5089646;28;20493;-73
2022/10/06 08:20:08;;;;;;;4.60;2.13;;;;;;;-143.84;34.43;45024.31;5091663;28;20436;-76
2022/10/06 08:22:37;;;;;;;2.73;2.53;;;;;;;-143.84;33.87;45003.38;5099058;28;20474;-76
2022/10/06 08:25:05;;;;;;;4.13;3.60;;;;;;;-143.84;34.64;45031.94;5111721;28;20443;-69
2022/10/06 08:27:33;;;;;;;9.60;3.57;;;;;;;-143.84;34.64;45016.69;5111585;28;20994;-70
2022/10/06 08:30:01;;;;;;;3.40;2.57;;;;;;;-143.84;35.00;45022.41;5111378;28;20446;-70
2022/10/06 08:32:28;;;;;;;2.90;1.73;;;;;;;-143.84;33.88;45045.25;5111006;28;20446;-69
2022/10/06 08:34:56;;;;;;;2.87;1.50;;;;;;;-143.84;34.11;45020.50;5110826;28;20860;-69
2022/10/06 08:37:25;;;;;;;1.93;1.60;;;;;;;-143.84;34.08;45016.69;5110851;28;20439;-69
2022/10/06 08:39:53;;;;;;;2.50;1.77;;;;;;;-143.84;33.83;45020.50;5111262;28;20451;-69
2022/10/06 08:42:26;;;;;;;10.03;2.80;;;;;;;-143.84;34.35;45018.59;5109563;28;20491;-70
2022/10/06 08:44:59;;;;;;;8.67;3.80;;;;;;;-143.84;34.87;45007.19;5109263;28;20443;-70
2022/10/06 08:47:32;;;;;;;2.23;1.60;;;;;;;-143.84;34.02;45030.03;5108977;28;20476;-70
2022/10/06 08:50:03;;;;;;;6.10;1.50;;;;;;;-143.84;33.63;45010.97;5109249;28;20496;-69
2022/10/06 08:52:55;;;;;;;2.33;1.50;;;;;;;-143.84;33.36;45022.41;5109183;28;21002;-69
2022/10/06 08:55:37;;;;;;;4.00;1.90;;;;;;;-143.84;33.68;44999.56;5109031;28;20507;-69
2022/10/06 08:58:29;;;;;;;1.57;1.47;;;;;;;-143.84;33.67;45033.84;5109692;28;20845;-69
2022/10/06 09:01:00;;;;;;;3.03;1.50;;;;;;;-143.84;32.49;45018.59;5110620;28;21148;-69
2022/10/06 09:03:30;;;;;;;4.57;1.57;;;;;;;-143.84;33.40;45009.09;5109980;28;20980;-69
2022/10/06 09:06:07;;;;;;;3.37;1.50;;;;;;;-143.84;32.99;44999.56;5110217;28;20450;-69
2022/10/06 09:08:51;;;;;;;6.30;1.53;;;;;;;-143.84;32.80;45026.22;5110433;28;20781;-69
2022/10/06 09:11:38;;;;;;;5.53;2.00;;;;;;;-143.84;33.89;45028.13;5110418;28;20443;-69
2022/10/06 09:14:14;;;;;;;4.50;1.80;;;;;;;-143.84;32.72;45031.94;5110360;28;20431;-69
2022/10/06 09:16:46;;;;;;;5.83;1.70;;;;;;;-143.84;33.50;44999.56;5109736;28;20435;-69
2022/10/06 09:19:19;;;;;;;6.70;2.17;;;;;;;-143.84;33.48;44993.84;5109998;28;20500;-69
2022/10/06 09:21:51;;;;;;;9.10;1.90;;;;;;;-143.84;33.20;45003.38;5110013;28;20427;-69
2022/10/06 09:24:20;;;;;;;4.47;4.00;;;;;;;-143.84;32.46;44993.84;5110289;28;20967;-69
2022/10/06 09:26:51;;;;;;;8.70;3.13;;;;;;;-143.84;33.30;44997.66;5109951;28;20496;-70
2022/10/06 09:29:18;;;;;;;6.93;1.33;;;;;;;-143.84;31.97;45014.78;5110038;28;20443;-70
2022/10/06 09:31:49;;;;;;;3.30;1.80;;;;;;;-143.84;32.54;44997.66;5109213;28;20446;-69
2022/10/06 09:34:23;;;;;;;3.40;1.60;;;;;;;-143.84;31.92;44999.56;5109659;28;20450;-69
2022/10/06 09:36:59;;;;;;;6.10;1.77;;;;;;;-143.84;32.12;44991.94;5109813;28;20496;-70
2022/10/06 09:39:32;;;;;;;2.40;2.20;;;;;;;-143.84;32.73;44993.84;5109792;28;20473;-69
2022/10/06 09:42:03;;;;;;;1.57;1.47;;;;;;;-143.84;31.77;45005.28;5109638;28;20434;-69
2022/10/06 09:44:33;;;;;;;10.03;1.80;;;;;;;-143.84;31.96;45014.78;5109688;28;20470;-70
2022/10/06 09:47:00;;;;;;;8.80;2.10;;;;;;;-143.84;31.86;44991.94;5109248;28;20439;-70
2022/10/06 09:49:30;;;;;;;3.30;2.17;;;;;;;-143.84;31.59;44993.84;5109552;28;20455;-70
2022/10/06 09:52:10;;;;;;;2.57;1.70;;;;;;;-143.84;31.42;45001.47;5109516;28;21020;-69
2022/10/06 09:54:40;;;;;;;3.00;1.50;;;;;;;-143.84;30.90;44976.72;5109367;28;20454;-69
2022/10/06 09:57:10;;;;;;;2.73;1.40;;;;;;;-143.84;30.00;44986.22;5109508;28;20521;-70
2022/10/06 09:59:42;;;;;;;1.53;1.43;;;;;;;-143.84;30.72;45010.97;5109642;28;20446;-70
2022/10/06 10:02:35;;;;;;;3.23;1.37;;;;;;;-143.84;31.06;44982.41;5108966;28;20431;-69
2022/10/06 10:05:05;;;;;;;4.93;3.67;;;;;;;-143.84;31.58;44988.13;5090766;28;20778;-70
2022/10/06 10:07:36;;;;;;;6.37;2.23;;;;;;;-143.84;31.01;44976.72;5108830;28;20450;-69
2022/10/06 10:10:27;;;;;;;5.43;2.57;;;;;;;-143.84;30.86;44984.31;5109154;28;20454;-69
2022/10/06 10:12:55;;;;;;;16.00;5.33;;;;;;;-143.84;31.21;44982.41;5094171;28;21080;-69
2022/10/06 10:15:30;;;;;;;6.20;2.27;;;;;;;-143.84;31.87;45003.38;5091928;28;20436;-69
2022/10/06 10:17:59;;;;;;;5.07;1.70;;;;;;;-143.84;32.32;44999.56;5108596;28;20521;-69
2022/10/06 10:20:33;;;;;;;4.03;2.13;;;;;;;-143.84;32.67;44999.56;5109452;28;20504;-69
2022/10/06 10:23:06;;;;;;;2.50;1.53;;;;;;;-143.84;31.65;45012.88;5109115;28;20475;-69
2022/10/06 10:26:08;;;;;;;2.83;1.43;;;;;;;-143.84;31.18;44976.72;5109191;28;20459;-70
2022/10/06 10:28:50;;;;;;;2.70;2.40;;;;;;;-143.84;31.18;45028.13;5108568;28;20446;-70
2022/10/06 10:31:21;;;;;;;3.83;3.10;;;;;;;-143.84;31.96;44986.22;5108549;28;20439;-69
2022/10/06 10:33:56;;;;;;;6.30;1.70;;;;;;;-143.84;31.09;45001.47;5109196;28;20500;-69
2022/10/06 10:36:33;;;;;;;2.83;1.90;;;;;;;-143.84;31.51;45003.38;5109205;28;20491;-70
2022/10/06 10:39:06;;;;;;;4.00;1.50;;;;;;;-143.84;31.78;44969.09;5109162;28;20438;-69
2022/10/06 10:41:41;;;;;;;3.10;1.43;;;;;;;-143.84;30.61;45010.97;5108911;28;20440;-69
2022/10/06 10:44:11;;;;;;;2.40;1.50;;;;;;;-143.84;31.70;45009.09;5108743;28;20528;-70
2022/10/06 10:46:43;;;;;;;4.33;2.00;;;;;;;-143.84;32.50;44982.41;5108555;28;20435;-69
2022/10/06 10:49:15;;;;;;;1.87;1.77;;;;;;;-143.84;29.77;45016.69;5109119;28;20456;-70
2022/10/06 10:51:49;;;;;;;1.60;1.50;;;;;;;-143.84;31.36;44995.75;5108793;28;20440;-69
2022/10/06 10:54:24;;;;;;;1.90;1.20;;;;;;;-143.84;31.29;45045.25;5109002;28;20849;-69
2022/10/06 10:56:52;;;;;;;4.60;3.60;;;;;;;-143.84;30.64;45018.59;5108895;28;21012;-69
2022/10/06 10:59:26;;;;;;;3.07;2.20;;;;;;;-143.84;31.63;45024.31;5108772;28;20439;-69
2022/10/06 11:01:58;;;;;;;2.43;1.60;;;;;;;-143.84;31.94;45033.84;5108142;28;20446;-69
2022/10/06 11:04:25;;;;;;;1.73;1.57;;;;;;;-143.84;33.01;45018.59;5109201;28;20459;-69
2022/10/06 11:07:11;;;;;;;4.13;1.60;;;;;;;-143.84;33.36;45022.41;5091076;28;20432;-69
2022/10/06 11:09:48;;;;;;;2.13;1.70;;;;;;;-143.84;33.31;44991.94;5109169;28;20435;-69
2022/10/06 11:12:25;;;;;;;1.70;1.53;;;;;;;-143.84;31.79;45010.97;5108794;28;20476;-69
2022/10/06 11:14:58;;;;;;;1.77;1.37;;;;;;;-143.84;32.06;45052.88;5109407;28;20442;-72
2022/10/06 11:17:49;;;;;;;1.70;1.30;;;;;;;-143.84;33.31;45028.13;5108596;28;20439;-72
2022/10/06 11:20:36;;;;;;;4.10;1.73;;;;;;;-143.84;34.54;45031.94;5095089;28;20455;-72
2022/10/06 11:23:27;;;;;;;3.73;2.33;;;;;;;-143.84;34.81;44999.56;5112702;28;20850;-72
2022/10/06 11:26:06;;;;;;;8.40;2.37;;;;;;;-143.84;33.49;45003.38;5113745;28;20853;-73
2022/10/06 11:28:42;;;;;;;5.93;1.90;;;;;;;-143.84;32.83;45028.13;5113681;28;20449;-73
2022/10/06 11:31:21;;;;;;;1.60;1.50;;;;;;;-143.84;32.62;45020.50;5113344;28;20940;-73
2022/10/06 11:33:51;;;;;;;2.27;1.60;;;;;;;-143.84;33.18;45024.31;5114095;28;20431;-73
2022/10/06 11:36:26;;;;;;;2.60;1.80;;;;;;;-143.84;33.97;45016.69;5113630;28;20423;-73
2022/10/06 11:39:00;;;;;;;4.90;2.30;;;;;;;-143.84;35.36;45018.59;5113559;28;20492;-73
2022/10/06 11:41:34;;;;;;;3.33;1.90;;;;;;;-143.84;33.62;45018.59;5113588;28;20492;-73
2022/10/06 11:44:06;;;;;;;3.40;1.53;;;;;;;-143.84;32.95;45016.69;5113033;28;20912;-73